Decoded Metar for PADU (UNALASKA in AK, USA) (IATA:DUT) | Meteo·Mobile Aviation Weather
aviador You're here:

PADU Decoded Metar

UNALASKA in AK, USA
Report Time2019-01-19 16:17:00
UTC Time2019-01-19 16:55:28
Flight Rules ifr IFR
Wind330° at 10 kt
W.Decomp.*RWY 30: 9.6 kt HW 2.8 kt RCW
W.Rank330° ranks 1
Current wind is below 330° avg. (13.1)
Visibility4828 m
Phenomena:Light Snow
Mist
Clouds:Broken 009 Hf
Overcast 013 Hf
Expected CloudBase > 800 ft AGL from Temp-Dew spread
Ceiling900 ft
Temp01°C (ISA -14)
Dew Point-1°C (87% RH)
AAT-4.7°C
QNH1008 hPa
Density Alt-1,444 ft
Elevation13 ft
Report Wrong Elevation
Raw Report
PADU 191617Z 33010KT 3SM -SN BR BKN009 OVC013 01/M01 A2976 RMK AO2
RAE1557SNB1557 CIG 007V012 P0000=

Extra information for PADU:More info

Metar Taf Metar & Taf Last 4 Metars F.Rules Stats Wind Profile Meteogram Temp Stats Airport Information Weather charts Add Link Nearby VenuesMetar ALERT Operation Metar Decoded Social comments

AIRNAV info for PADU